Time;durP1;ratioP1;P1;durP2;ratioP2;P2;SDS_P1;SDS_P2;PMS_P1;PMS_P2;Temp;Humidity;BMP_temperature;BMP_pressure;BME280_temperature;BME280_humidity;BME280_pressure;Samples;Min_cycle;Max_cycle;Signal;HPM_P1;HPM_P2
2023/05/11 00:00:19;;;;;;;16.13;11.98;;;;;;;;;;4972737;28;20043;-71
2023/05/11 00:02:44;;;;;;;14.10;11.18;;;13.70;99.90;;;;;;4972801;28;20073;-71
2023/05/11 00:05:10;;;;;;;14.35;10.98;;;13.30;99.90;;;;;;4972811;28;20489;-72
2023/05/11 00:07:36;;;;;;;13.57;9.77;;;;;;;;;;4972676;28;20043;-73
2023/05/11 00:10:01;;;;;;;12.82;8.98;;;13.60;99.90;;;;;;4975854;28;20043;-71
2023/05/11 00:12:27;;;;;;;13.23;9.18;;;13.70;99.90;;;;;;4972894;28;20046;-71
2023/05/11 00:14:53;;;;;;;11.98;8.93;;;;;;;;;;4972171;28;20463;-71
2023/05/11 00:17:19;;;;;;;11.45;7.88;;;13.60;99.90;;;;;;4972435;28;20046;-71
2023/05/11 00:19:45;;;;;;;11.30;8.65;;;13.50;99.90;;;;;;4972606;28;20130;-71
2023/05/11 00:22:11;;;;;;;13.10;9.85;;;;;;;;;;4972206;28;20406;-72
2023/05/11 00:24:38;;;;;;;12.15;9.50;;;;;;;;;;4972406;28;20046;-72
2023/05/11 00:27:03;;;;;;;15.18;10.25;;;13.50;99.90;;;;;;4972451;28;20121;-71
2023/05/11 00:29:29;;;;;;;11.98;9.20;;;;;;;;;;4956451;28;20117;-72
2023/05/11 00:31:55;;;;;;;14.15;9.82;;;;;;;;;;4972030;28;20424;-72
2023/05/11 00:34:21;;;;;;;14.88;10.02;;;13.50;99.90;;;;;;4972378;28;20671;-71
2023/05/11 00:36:48;;;;;;;14.23;10.18;;;13.50;99.90;;;;;;4972220;28;20126;-71
2023/05/11 00:39:14;;;;;;;14.07;9.73;;;;;;;;;;4972328;28;20051;-71
2023/05/11 00:41:40;;;;;;;14.40;10.02;;;;;;;;;;4971892;28;20089;-71
2023/05/11 00:44:06;;;;;;;15.85;10.38;;;;;;;;;;4972407;28;20445;-72
2023/05/11 00:46:32;;;;;;;13.55;9.65;;;13.40;99.90;;;;;;4971962;28;20521;-74
2023/05/11 00:48:58;;;;;;;15.32;10.07;;;13.20;99.90;;;;;;4956058;28;20097;-72
2023/05/11 00:51:25;;;;;;;16.80;11.38;;;;;;;;;;4955621;28;20047;-71
2023/05/11 00:53:51;;;;;;;15.63;10.05;;;;;;;;;;4972316;28;20113;-71
2023/05/11 00:56:17;;;;;;;16.23;10.00;;;;;;;;;;4955814;28;20045;-72
2023/05/11 00:58:43;;;;;;;15.55;10.65;;;;;;;;;;4972048;28;20117;-73
2023/05/11 01:01:09;;;;;;;15.65;10.55;;;;;;;;;;4971674;28;20464;-72
2023/05/11 01:03:35;;;;;;;17.88;9.20;;;;;;;;;;4972465;28;20042;-71
2023/05/11 01:06:07;;;;;;;15.52;9.10;;;13.10;99.90;;;;;;4971814;28;20114;-71
2023/05/11 01:08:55;;;;;;;14.43;9.52;;;13.30;99.90;;;;;;4955708;28;20054;-71
2023/05/11 01:11:29;;;;;;;14.55;8.57;;;13.00;99.90;;;;;;4971660;28;20046;-70
2023/05/11 01:14:02;;;;;;;27.00;9.48;;;12.90;99.90;;;;;;4971876;28;20043;-71
2023/05/11 01:16:33;;;;;;;22.95;10.05;;;13.20;99.90;;;;;;4972000;28;20074;-70
2023/05/11 01:19:07;;;;;;;34.17;12.02;;;13.10;99.90;;;;;;4971755;28;20047;-70
2023/05/11 01:21:34;;;;;;;35.60;10.82;;;13.00;99.90;;;;;;4971426;28;20039;-71
2023/05/11 01:24:27;;;;;;;19.55;9.38;;;12.70;99.90;;;;;;4975855;28;20058;-71
2023/05/11 01:27:13;;;;;;;15.55;10.27;;;12.80;99.90;;;;;;4956397;28;20441;-71
2023/05/11 01:29:57;;;;;;;33.92;10.30;;;13.00;99.90;;;;;;4971571;28;20045;-69
2023/05/11 01:32:30;;;;;;;15.48;9.05;;;12.80;99.90;;;;;;4955444;28;20039;-71
2023/05/11 01:35:04;;;;;;;20.00;9.38;;;13.00;99.90;;;;;;4971593;28;20042;-70
2023/05/11 01:37:32;;;;;;;36.50;9.85;;;12.90;99.90;;;;;;4972881;28;20548;-71
2023/05/11 01:40:02;;;;;;;39.35;9.68;;;12.50;99.90;;;;;;4971282;28;20035;-68
2023/05/11 01:42:34;;;;;;;57.13;10.38;;;12.80;99.90;;;;;;4971289;28;20046;-71
2023/05/11 01:45:01;;;;;;;44.50;10.07;;;;;;;;;;4955246;28;20126;-70
2023/05/11 01:47:29;;;;;;;30.35;10.55;;;12.50;99.90;;;;;;4955319;28;20046;-70
2023/05/11 01:49:56;;;;;;;18.10;8.98;;;12.60;99.90;;;;;;4971578;28;20416;-71
2023/05/11 01:52:24;;;;;;;21.67;8.77;;;13.10;99.90;;;;;;4971319;28;20066;-71
2023/05/11 01:54:52;;;;;;;24.65;8.75;;;12.90;99.90;;;;;;4971276;28;20416;-70
2023/05/11 01:57:18;;;;;;;38.42;9.68;;;13.10;99.90;;;;;;4971237;28;20070;-70
2023/05/11 01:59:46;;;;;;;24.10;8.75;;;13.10;99.90;;;;;;4971234;28;20047;-71
2023/05/11 02:02:12;;;;;;;30.83;8.30;;;12.60;99.90;;;;;;4970941;28;20043;-71
2023/05/11 02:04:40;;;;;;;11.93;7.93;;;12.60;99.90;;;;;;4971193;28;20043;-71
2023/05/11 02:07:09;;;;;;;16.05;7.47;;;12.70;99.90;;;;;;4971264;28;20035;-71
2023/05/11 02:09:36;;;;;;;12.65;8.30;;;12.70;99.90;;;;;;4955153;28;20035;-71
2023/05/11 02:12:03;;;;;;;16.13;8.23;;;13.00;99.90;;;;;;4954771;28;20106;-70
2023/05/11 02:14:32;;;;;;;54.35;9.45;;;12.90;99.90;;;;;;4971475;28;20054;-70
2023/05/11 02:16:59;;;;;;;55.50;9.23;;;12.70;99.90;;;;;;4954972;28;20043;-71
2023/05/11 02:19:27;;;;;;;13.90;6.32;;;12.70;99.90;;;;;;4955227;28;20043;-70
2023/05/11 02:21:54;;;;;;;12.13;6.22;;;12.40;99.90;;;;;;4970931;28;20417;-71
2023/05/11 02:24:22;;;;;;;20.20;6.55;;;12.60;99.90;;;;;;4955222;28;20608;-71
2023/05/11 02:26:47;;;;;;;41.92;8.27;;;12.50;99.90;;;;;;4970895;28;20039;-71
2023/05/11 02:29:13;;;;;;;56.55;8.38;;;12.40;99.90;;;;;;4970981;28;20543;-71
2023/05/11 02:31:44;;;;;;;26.15;7.30;;;12.50;99.90;;;;;;4970663;28;20041;-71
2023/05/11 02:34:20;;;;;;;22.65;7.50;;;12.40;99.90;;;;;;4970950;28;20046;-70
2023/05/11 02:36:48;;;;;;;14.90;7.55;;;12.40;99.90;;;;;;4970906;28;20086;-70
2023/05/11 02:39:20;;;;;;;22.90;8.02;;;12.50;99.90;;;;;;4973081;28;20090;-71
2023/05/11 02:41:48;;;;;;;17.08;8.40;;;12.70;99.90;;;;;;4974173;28;20043;-71
2023/05/11 02:44:16;;;;;;;11.18;7.82;;;12.70;99.90;;;;;;4974405;28;20532;-70
2023/05/11 02:46:45;;;;;;;26.83;7.72;;;12.80;99.90;;;;;;4958175;28;20520;-70
2023/05/11 02:49:14;;;;;;;11.02;7.45;;;13.00;99.90;;;;;;4974290;28;20085;-71
2023/05/11 02:51:43;;;;;;;20.70;8.20;;;12.90;99.90;;;;;;4974013;28;20142;-71
2023/05/11 02:54:11;;;;;;;9.98;6.88;;;12.50;99.90;;;;;;4958106;28;20054;-70
2023/05/11 02:56:37;;;;;;;10.00;6.78;;;12.80;99.90;;;;;;4974348;28;20123;-70
2023/05/11 02:59:03;;;;;;;9.13;6.88;;;12.70;99.90;;;;;;4974186;28;20047;-70
2023/05/11 03:01:29;;;;;;;15.25;7.03;;;12.70;99.90;;;;;;4973645;28;20086;-70
2023/05/11 03:03:55;;;;;;;9.38;5.80;;;12.50;99.90;;;;;;4973958;28;20089;-70
2023/05/11 03:06:20;;;;;;;12.77;7.70;;;12.50;99.90;;;;;;4973930;28;20039;-71
2023/05/11 03:08:47;;;;;;;34.80;7.47;;;12.80;99.90;;;;;;4974223;28;20041;-70
2023/05/11 03:11:14;;;;;;;8.25;6.47;;;12.70;99.90;;;;;;4973616;28;20139;-70
2023/05/11 03:13:41;;;;;;;46.60;9.13;;;12.60;99.90;;;;;;4973869;28;20046;-71
2023/05/11 03:16:10;;;;;;;28.13;7.45;;;12.60;99.90;;;;;;4973810;28;20089;-70
2023/05/11 03:18:36;;;;;;;19.08;6.50;;;12.30;99.90;;;;;;4973915;28;20042;-70
2023/05/11 03:21:02;;;;;;;10.35;6.15;;;12.70;99.90;;;;;;4973384;28;20035;-71
2023/05/11 03:23:29;;;;;;;12.82;6.47;;;12.60;99.90;;;;;;4973779;28;20042;-70
2023/05/11 03:25:56;;;;;;;9.57;6.53;;;12.40;99.90;;;;;;4957527;28;20073;-71
2023/05/11 03:28:24;;;;;;;11.30;6.97;;;12.70;99.90;;;;;;4973811;28;20055;-70
2023/05/11 03:30:51;;;;;;;8.38;6.47;;;12.60;99.90;;;;;;4973184;28;20047;-70
2023/05/11 03:33:17;;;;;;;25.02;6.65;;;12.80;99.90;;;;;;4973697;28;20439;-71
2023/05/11 03:35:46;;;;;;;26.70;6.88;;;12.40;99.90;;;;;;4973461;28;20130;-70
2023/05/11 03:38:13;;;;;;;25.02;6.15;;;12.40;99.90;;;;;;4973412;28;20050;-71
2023/05/11 03:40:41;;;;;;;11.45;5.90;;;12.10;99.90;;;;;;4956986;28;20118;-71
2023/05/11 03:43:10;;;;;;;6.45;5.22;;;12.80;99.90;;;;;;4973371;28;20085;-70
2023/05/11 03:45:37;;;;;;;5.68;4.82;;;12.50;99.90;;;;;;4957421;28;20034;-71
2023/05/11 03:48:05;;;;;;;6.82;5.18;;;12.30;99.90;;;;;;4973388;28;20400;-70
2023/05/11 03:50:31;;;;;;;12.38;5.85;;;12.20;99.90;;;;;;4972117;28;20045;-71
2023/05/11 03:52:58;;;;;;;21.65;6.57;;;12.40;99.90;;;;;;4973186;28;20065;-70
2023/05/11 03:55:25;;;;;;;11.60;6.07;;;12.50;99.90;;;;;;4973357;28;20110;-70
2023/05/11 03:57:51;;;;;;;17.20;6.43;;;12.50;99.90;;;;;;4973279;28;20038;-71
2023/05/11 04:00:17;;;;;;;41.63;7.97;;;12.40;99.90;;;;;;4973065;28;20460;-70
2023/05/11 04:02:43;;;;;;;10.85;6.80;;;12.30;99.90;;;;;;4972863;28;20130;-70
2023/05/11 04:05:11;;;;;;;15.70;5.97;;;12.60;99.90;;;;;;4957071;28;20125;-70
2023/05/11 04:07:38;;;;;;;7.55;5.25;;;12.10;99.90;;;;;;4973167;28;20401;-70
2023/05/11 04:10:05;;;;;;;10.20;5.50;;;12.20;99.90;;;;;;4972945;28;20074;-70
2023/05/11 04:12:30;;;;;;;6.38;5.00;;;12.30;99.90;;;;;;4972938;28;20501;-71
2023/05/11 04:14:56;;;;;;;7.68;5.10;;;12.90;99.90;;;;;;4973882;28;20097;-70
2023/05/11 04:17:22;;;;;;;17.23;6.10;;;12.30;99.90;;;;;;4974202;28;20505;-70
2023/05/11 04:19:47;;;;;;;23.65;7.22;;;12.00;99.90;;;;;;4956586;28;20508;-70
2023/05/11 04:22:13;;;;;;;15.65;5.88;;;12.60;99.90;;;;;;4972308;28;20126;-70
2023/05/11 04:24:38;;;;;;;14.32;6.22;;;12.50;99.90;;;;;;4972879;28;20039;-70
2023/05/11 04:27:04;;;;;;;9.05;5.78;;;13.00;99.90;;;;;;4956396;28;20042;-70
2023/05/11 04:29:30;;;;;;;35.50;7.40;;;12.60;99.90;;;;;;4972624;28;20035;-70
2023/05/11 04:31:56;;;;;;;24.48;7.03;;;12.30;99.90;;;;;;4972099;28;20123;-70
2023/05/11 04:34:21;;;;;;;32.80;7.47;;;12.60;99.90;;;;;;4972536;28;20508;-70
2023/05/11 04:36:50;;;;;;;13.63;6.65;;;12.20;99.90;;;;;;4972653;28;20436;-70
2023/05/11 04:39:16;;;;;;;6.95;4.90;;;12.50;99.90;;;;;;4972559;28;20421;-70
2023/05/11 04:41:42;;;;;;;6.00;3.92;;;12.60;99.90;;;;;;4973223;28;20170;-70
2023/05/11 04:44:08;;;;;;;6.22;4.22;;;12.40;99.90;;;;;;4972182;28;20077;-70
2023/05/11 04:46:34;;;;;;;7.72;4.22;;;12.60;99.90;;;;;;4972075;28;20038;-70
2023/05/11 04:49:00;;;;;;;6.75;4.72;;;12.60;99.90;;;;;;4972157;28;20170;-70
2023/05/11 04:51:25;;;;;;;7.32;4.80;;;12.40;99.90;;;;;;4972082;28;20100;-70
2023/05/11 04:53:51;;;;;;;8.35;5.90;;;12.30;99.90;;;;;;4972187;28;20034;-70
2023/05/11 04:56:17;;;;;;;12.27;6.40;;;12.40;99.90;;;;;;4971948;28;20050;-70
2023/05/11 04:58:42;;;;;;;13.55;6.63;;;12.60;99.90;;;;;;4971705;28;20049;-70
2023/05/11 05:01:08;;;;;;;15.73;6.63;;;12.40;99.90;;;;;;4971360;28;20071;-70
2023/05/11 05:03:33;;;;;;;17.95;6.13;;;12.30;99.90;;;;;;4955888;28;20031;-70
2023/05/11 05:05:59;;;;;;;10.32;5.57;;;12.50;99.90;;;;;;4971819;28;20034;-69
2023/05/11 05:08:24;;;;;;;15.32;6.05;;;12.50;99.90;;;;;;4971837;28;20116;-70
2023/05/11 05:10:50;;;;;;;7.10;4.55;;;12.30;99.90;;;;;;4971653;28;20125;-70
2023/05/11 05:13:16;;;;;;;7.65;5.05;;;12.20;99.90;;;;;;4971635;28;20038;-69
2023/05/11 05:15:41;;;;;;;8.82;4.95;;;12.40;99.90;;;;;;4985161;28;20042;-70
2023/05/11 05:18:07;;;;;;;6.63;4.15;;;12.20;99.90;;;;;;4990434;28;20038;-69
2023/05/11 05:20:34;;;;;;;7.25;4.32;;;12.40;99.90;;;;;;4990374;28;20042;-70
2023/05/11 05:23:00;;;;;;;7.43;4.00;;;12.30;99.90;;;;;;4974583;28;20034;-70
2023/05/11 05:25:26;;;;;;;7.22;4.88;;;12.80;99.90;;;;;;4982656;28;20070;-70
2023/05/11 05:27:52;;;;;;;8.13;5.05;;;12.20;99.90;;;;;;4990546;28;20096;-70
2023/05/11 05:30:17;;;;;;;6.22;4.50;;;12.70;99.90;;;;;;4990145;28;20125;-70
2023/05/11 05:32:43;;;;;;;7.88;4.22;;;12.80;99.90;;;;;;4991199;28;20198;-70
2023/05/11 05:35:09;;;;;;;17.23;4.90;;;12.80;99.90;;;;;;4990182;28;20043;-69
2023/05/11 05:37:36;;;;;;;9.25;4.82;;;12.80;99.90;;;;;;4990313;28;20559;-70
2023/05/11 05:40:03;;;;;;;8.00;4.07;;;12.40;99.90;;;;;;4991974;28;20053;-69
2023/05/11 05:42:28;;;;;;;8.60;3.90;;;12.40;99.90;;;;;;4992348;28;20054;-70
2023/05/11 05:44:54;;;;;;;8.30;4.25;;;12.60;99.90;;;;;;4974642;28;20042;-69
2023/05/11 05:47:19;;;;;;;6.15;3.85;;;12.20;99.90;;;;;;4990983;28;20173;-70
2023/05/11 05:49:55;;;;;;;5.22;3.83;;;12.30;99.90;;;;;;4991014;28;20038;-70
2023/05/11 05:52:23;;;;;;;4.53;3.50;;;12.30;99.90;;;;;;4974659;28;20049;-71
2023/05/11 05:54:49;;;;;;;4.47;3.47;;;12.80;99.90;;;;;;4990597;28;20039;-70
2023/05/11 05:57:14;;;;;;;4.78;3.38;;;12.70;99.90;;;;;;4971108;28;20047;-70
2023/05/11 05:59:40;;;;;;;5.78;3.38;;;12.60;99.90;;;;;;4975614;28;20045;-70
2023/05/11 06:02:06;;;;;;;3.65;2.75;;;13.20;99.90;;;;;;4973580;28;20045;-70
2023/05/11 06:04:32;;;;;;;3.50;2.80;;;12.80;99.90;;;;;;4974366;28;20047;-70
2023/05/11 06:06:58;;;;;;;3.40;2.50;;;12.80;99.90;;;;;;4972209;28;20397;-71
2023/05/11 06:09:24;;;;;;;3.22;2.50;;;12.80;99.90;;;;;;4977481;28;20238;-70
2023/05/11 06:11:52;;;;;;;4.18;3.05;;;12.80;99.90;;;;;;4975817;28;20046;-70
2023/05/11 06:14:18;;;;;;;3.40;2.42;;;12.90;99.90;;;;;;4971111;28;20038;-69
2023/05/11 06:16:44;;;;;;;3.38;2.50;;;12.50;99.90;;;;;;4966081;28;20038;-70
2023/05/11 06:19:10;;;;;;;2.72;2.20;;;12.80;99.90;;;;;;4984899;28;20089;-70
2023/05/11 06:21:35;;;;;;;3.47;2.55;;;12.80;99.90;;;;;;4983211;28;20550;-70
2023/05/11 06:24:01;;;;;;;2.42;2.00;;;12.90;99.90;;;;;;4981744;28;20056;-69
2023/05/11 06:26:27;;;;;;;3.53;2.78;;;12.90;99.90;;;;;;4970225;28;20046;-70
2023/05/11 06:28:53;;;;;;;6.35;3.72;;;12.70;99.90;;;;;;4982948;28;20042;-70
2023/05/11 06:31:18;;;;;;;3.50;2.88;;;12.90;99.90;;;;;;4975429;28;20077;-70
2023/05/11 06:33:44;;;;;;;4.78;2.78;;;13.00;99.90;;;;;;4984359;28;20128;-69
2023/05/11 06:36:10;;;;;;;3.53;2.67;;;13.10;99.90;;;;;;4981195;28;20046;-70
2023/05/11 06:38:35;;;;;;;2.92;2.45;;;12.90;99.90;;;;;;4978516;28;20504;-70
2023/05/11 06:41:01;;;;;;;3.55;2.70;;;13.00;99.90;;;;;;4980357;28;20157;-71
2023/05/11 06:43:27;;;;;;;4.03;2.92;;;13.20;99.90;;;;;;4977884;28;20098;-70
2023/05/11 06:45:52;;;;;;;6.57;3.55;;;13.30;99.90;;;;;;4988437;28;20061;-70
2023/05/11 06:48:18;;;;;;;4.28;3.00;;;13.20;99.90;;;;;;4973440;28;20046;-70
2023/05/11 06:50:44;;;;;;;4.28;3.20;;;13.10;99.90;;;;;;4963692;28;20045;-70
2023/05/11 06:53:09;;;;;;;5.70;2.80;;;13.00;99.90;;;;;;4959487;28;20043;-70
2023/05/11 06:55:36;;;;;;;3.95;2.65;;;12.80;99.90;;;;;;4978644;28;20062;-71
2023/05/11 06:58:02;;;;;;;3.90;3.00;;;12.70;99.90;;;;;;4982683;28;20035;-72
2023/05/11 07:00:27;;;;;;;4.35;3.15;;;13.00;99.90;;;;;;4982506;28;20093;-71
2023/05/11 07:02:53;;;;;;;3.67;3.00;;;13.00;99.90;;;;;;4959368;28;20034;-69
2023/05/11 07:05:18;;;;;;;5.55;3.92;;;13.00;99.90;;;;;;4973810;28;20053;-70
2023/05/11 07:07:45;;;;;;;4.60;3.28;;;13.50;99.90;;;;;;4979094;28;20070;-67
2023/05/11 07:10:10;;;;;;;4.60;3.17;;;13.30;99.90;;;;;;4978586;28;20093;-71
2023/05/11 07:12:36;;;;;;;4.05;3.25;;;13.40;99.90;;;;;;4981881;28;20046;-71
2023/05/11 07:15:02;;;;;;;3.67;3.13;;;13.20;99.90;;;;;;4977871;28;20043;-70
2023/05/11 07:17:28;;;;;;;4.28;3.00;;;13.30;99.90;;;;;;4982263;28;20080;-71
2023/05/11 07:19:54;;;;;;;4.50;3.15;;;13.10;99.90;;;;;;4979510;28;20580;-72
2023/05/11 07:22:20;;;;;;;6.25;3.20;;;13.40;99.90;;;;;;4981592;28;20105;-71
2023/05/11 07:24:45;;;;;;;4.32;3.30;;;13.20;99.90;;;;;;4978438;28;20039;-71
2023/05/11 07:27:11;;;;;;;5.00;3.90;;;13.40;99.90;;;;;;4979087;28;20050;-71
2023/05/11 07:29:37;;;;;;;5.40;3.97;;;13.20;99.90;;;;;;4976665;28;20492;-71
2023/05/11 07:32:04;;;;;;;6.45;4.38;;;;;;;;;;4975805;28;20046;-72
2023/05/11 07:34:31;;;;;;;6.95;5.18;;;;;;;;;;4978273;28;20061;-71
2023/05/11 07:36:58;;;;;;;7.03;5.30;;;;;;;;;;4976346;28;20042;-71
2023/05/11 07:39:25;;;;;;;7.80;5.47;;;;;;;;;;4978051;28;20476;-69
2023/05/11 07:42:01;;;;;;;8.95;5.32;;;;;;;;;;4981089;28;20046;-71
2023/05/11 07:44:27;;;;;;;6.82;5.07;;;;;;;;;;4988824;28;20035;-70
2023/05/11 07:46:53;;;;;;;7.75;5.22;;;;;;;;;;4979334;28;20561;-71
2023/05/11 07:49:20;;;;;;;9.63;6.35;;;;;;;;;;4981392;28;20515;-71
2023/05/11 07:51:46;;;;;;;5.53;4.43;;;;;;;;;;4960259;28;20416;-72
2023/05/11 07:54:12;;;;;;;8.70;5.82;;;;;;;;;;4979796;28;20046;-71
2023/05/11 07:56:38;;;;;;;7.00;5.18;;;;;;;;;;4979562;28;20049;-71
2023/05/11 07:59:04;;;;;;;8.45;5.78;;;;;;;;;;4979449;28;20415;-71
2023/05/11 08:01:31;;;;;;;7.50;5.55;;;;;;;;;;4983322;28;20100;-71
2023/05/11 08:03:57;;;;;;;8.93;6.20;;;;;;;;;;4974190;28;20046;-72
2023/05/11 08:06:23;;;;;;;8.75;5.97;;;;;;;;;;4976877;28;20133;-71
2023/05/11 08:08:49;;;;;;;8.95;6.45;;;;;;;;;;4973836;28;20047;-71
2023/05/11 08:11:15;;;;;;;7.75;5.85;;;;;;;;;;4977495;28;20050;-70
2023/05/11 08:13:41;;;;;;;10.35;7.30;;;;;;;;;;4954854;28;20058;-71
2023/05/11 08:16:07;;;;;;;11.02;7.22;;;;;;;;;;4978296;28;20042;-70
2023/05/11 08:18:33;;;;;;;9.90;6.68;;;;;;;;;;4953396;28;20039;-71
2023/05/11 08:20:59;;;;;;;11.60;7.40;;;;;;;;;;4977134;28;20040;-70
2023/05/11 08:23:25;;;;;;;13.00;8.40;;;;;;;;;;4982331;28;20747;-70
2023/05/11 08:25:52;;;;;;;12.80;8.38;;;;;;;;;;4977432;28;20062;-71
2023/05/11 08:28:18;;;;;;;11.38;7.80;;;;;;;;;;4980253;28;20057;-71
2023/05/11 08:30:45;;;;;;;13.52;8.70;;;;;;;;;;4975406;28;20420;-71
2023/05/11 08:33:11;;;;;;;15.55;8.77;;;;;;;;;;4979631;28;20038;-68
2023/05/11 08:35:40;;;;;;;15.30;9.10;;;;;;;;;;4957061;28;20039;-70
2023/05/11 08:38:06;;;;;;;14.70;8.43;;;;;;;;;;4976929;28;20034;-71
2023/05/11 08:40:32;;;;;;;16.67;9.05;;;;;;;;;;4960684;28;20045;-71
2023/05/11 08:43:00;;;;;;;19.30;9.88;;;;;;;;;;4962718;28;20037;-71
2023/05/11 08:45:27;;;;;;;22.30;11.43;;;;;;;;;;4999361;28;20042;-72
2023/05/11 08:47:53;;;;;;;20.63;10.70;;;;;;;;;;4991225;28;20444;-72
2023/05/11 08:50:19;;;;;;;20.50;10.77;;;;;;;;;;4976425;28;20045;-71
2023/05/11 08:52:45;;;;;;;22.08;10.77;;;;;;;;;;4991536;28;20112;-72
2023/05/11 08:55:12;;;;;;;22.00;10.57;;;;;;;;;;4990550;28;20038;-72
2023/05/11 08:57:38;;;;;;;27.23;12.68;;;;;;;;;;5007108;28;20507;-71
2023/05/11 09:00:04;;;;;;;19.15;10.07;;;;;;;;;;4991128;28;20038;-72
2023/05/11 09:02:31;;;;;;;14.35;8.98;;;;;;;;;;4990643;28;20038;-72
2023/05/11 09:04:58;;;;;;;17.83;8.48;;;;;;;;;;5007265;28;20097;-72
2023/05/11 09:07:24;;;;;;;15.85;8.45;;;;;;;;;;5007480;28;20046;-72
2023/05/11 09:09:50;;;;;;;17.27;8.60;;;;;;;;;;5007545;28;20133;-72
2023/05/11 09:12:16;;;;;;;16.70;8.88;;;;;;;;;;5007357;28;20136;-72
2023/05/11 09:14:42;;;;;;;12.30;7.35;;;;;;;;;;5007445;28;20042;-71
2023/05/11 09:17:08;;;;;;;15.85;8.63;;;;;;;;;;5007373;28;20137;-72
2023/05/11 09:19:34;;;;;;;12.57;7.45;;;;;;;;;;5007469;28;20073;-72
2023/05/11 09:22:00;;;;;;;15.82;8.82;;;;;;;;;;5007089;28;20078;-72
2023/05/11 09:24:27;;;;;;;14.65;8.82;;;;;;;;;;4974839;28;20503;-72
2023/05/11 09:27:09;;;;;;;14.20;8.88;;;;;;;;;;5007272;28;20041;-72
2023/05/11 09:29:35;;;;;;;17.10;9.73;;;;;;;;;;5007219;28;20039;-72
2023/05/11 09:32:00;;;;;;;14.27;8.75;;;;;;;;;;4974441;28;20054;-73
2023/05/11 09:34:26;;;;;;;15.13;8.40;;;;;;;;;;5007518;28;20042;-72
2023/05/11 09:36:55;;;;;;;14.50;8.18;;;;;;;;;;4974602;28;20129;-73
2023/05/11 09:39:31;;;;;;;17.05;9.23;;;;;;;;;;5007152;28;20038;-72
2023/05/11 09:42:16;;;;;;;15.43;9.60;;;;;;;;;;4974280;28;20692;-72
2023/05/11 09:44:42;;;;;;;15.20;9.07;;;;;;;;;;4974778;28;20065;-72
2023/05/11 09:47:13;;;;;;;16.40;9.00;;;;;;;;;;5007162;28;20129;-72
2023/05/11 09:49:42;;;;;;;13.52;8.90;;;;;;;;;;4977578;28;20044;-72
2023/05/11 09:52:08;;;;;;;12.77;7.60;;;;;;;;;;5010889;28;20050;-72
2023/05/11 09:54:39;;;;;;;15.00;8.75;;;;;;;;;;5011055;28;20038;-72
2023/05/11 09:57:07;;;;;;;13.68;8.45;;;;;;;;;;5011068;28;20552;-72
2023/05/11 09:59:37;;;;;;;12.43;7.97;;;;;;;;;;4978107;28;20504;-71
2023/05/11 10:02:18;;;;;;;13.32;8.50;;;;;;;;;;5010924;28;20050;-72
2023/05/11 10:04:44;;;;;;;15.85;9.52;;;;;;;;;;5010910;28;20053;-71
2023/05/11 10:07:10;;;;;;;14.43;8.75;;;;;;;;;;5010882;28;20038;-71
2023/05/11 10:09:37;;;;;;;15.35;8.90;;;;;;;;;;4978052;28;20042;-72
2023/05/11 10:12:05;;;;;;;12.10;7.97;;;;;;;;;;5008836;28;20250;-71
2023/05/11 10:14:31;;;;;;;12.35;8.65;;;;;;;;;;5009652;28;20070;-72
2023/05/11 10:16:58;;;;;;;12.00;8.57;;;;;;;;;;5009938;28;20124;-70
2023/05/11 10:19:24;;;;;;;13.10;8.07;;;16.60;99.90;;;;;;5010690;28;20038;-71
2023/05/11 10:21:51;;;;;;;14.00;8.88;;;16.20;99.90;;;;;;4986082;28;20157;-71
2023/05/11 10:24:18;;;;;;;14.15;9.43;;;16.30;99.90;;;;;;4986210;28;20050;-72
2023/05/11 10:26:44;;;;;;;14.85;9.73;;;;;;;;;;4986989;28;20507;-72
2023/05/11 10:29:10;;;;;;;13.27;8.43;;;16.20;99.90;;;;;;4975392;28;20039;-71
2023/05/11 10:31:36;;;;;;;11.43;8.30;;;16.00;99.90;;;;;;4983657;28;20034;-70
2023/05/11 10:34:03;;;;;;;13.63;9.38;;;16.30;99.90;;;;;;4978894;28;20041;-70
2023/05/11 10:36:29;;;;;;;12.27;9.07;;;;;;;;;;4974346;28;20526;-71
2023/05/11 10:38:55;;;;;;;15.10;9.65;;;16.40;99.90;;;;;;4967281;28;20049;-71
2023/05/11 10:41:38;;;;;;;14.95;10.00;;;16.80;99.90;;;;;;4961260;28;20050;-70
2023/05/11 10:44:18;;;;;;;15.73;10.03;;;16.30;99.90;;;;;;4960492;28;20039;-71
2023/05/11 10:47:17;;;;;;;15.73;10.38;;;16.10;99.90;;;;;;4982998;28;20281;-70
2023/05/11 10:50:01;;;;;;;12.57;8.60;;;16.30;99.90;;;;;;4966447;28;20084;-71
2023/05/11 10:52:35;;;;;;;14.32;10.65;;;16.80;99.90;;;;;;4987266;28;20061;-71
2023/05/11 10:55:21;;;;;;;15.45;9.43;;;16.50;99.90;;;;;;4991779;28;20469;-71
2023/05/11 10:58:27;;;;;;;12.98;8.88;;;16.60;99.90;;;;;;4991375;28;20496;-71
2023/05/11 11:01:24;;;;;;;13.85;8.63;;;16.80;99.90;;;;;;4980630;28;20081;-71
2023/05/11 11:03:58;;;;;;;11.60;9.02;;;16.50;99.90;;;;;;4993887;28;20404;-72
2023/05/11 11:06:24;;;;;;;10.95;7.85;;;;;;;;;;4993218;28;20037;-71
2023/05/11 11:09:00;;;;;;;11.25;8.52;;;16.80;99.90;;;;;;4994054;28;20038;-71
2023/05/11 11:11:38;;;;;;;12.23;8.57;;;17.10;99.90;;;;;;4976277;28;20117;-71
2023/05/11 11:14:05;;;;;;;13.68;9.02;;;17.00;99.90;;;;;;4992235;28;20130;-71
2023/05/11 11:16:32;;;;;;;13.00;8.40;;;16.90;99.90;;;;;;4992277;28;20042;-71
2023/05/11 11:19:31;;;;;;;15.55;8.32;;;17.20;99.90;;;;;;4992281;28;20070;-71
2023/05/11 11:21:58;;;;;;;13.55;8.88;;;17.50;99.90;;;;;;4988020;28;20078;-71
2023/05/11 11:24:36;;;;;;;16.15;10.57;;;17.50;99.90;;;;;;4994349;28;20035;-72
2023/05/11 11:27:02;;;;;;;11.30;8.10;;;17.70;99.90;;;;;;4993603;28;20046;-71
2023/05/11 11:29:29;;;;;;;9.65;8.15;;;17.50;99.90;;;;;;4992032;28;20034;-70
2023/05/11 11:31:55;;;;;;;10.85;8.15;;;17.50;99.90;;;;;;4975540;28;20034;-71
2023/05/11 11:34:26;;;;;;;15.13;10.68;;;17.50;99.90;;;;;;4992917;28;20104;-71
2023/05/11 11:36:57;;;;;;;13.30;11.07;;;17.50;99.90;;;;;;4976461;28;20497;-71
2023/05/11 11:39:27;;;;;;;11.55;8.73;;;17.20;99.90;;;;;;4976876;28;20050;-72
2023/05/11 11:42:10;;;;;;;9.90;8.40;;;17.40;99.90;;;;;;4992576;28;20049;-71
2023/05/11 11:44:37;;;;;;;8.95;7.68;;;17.70;99.90;;;;;;4993047;28;20034;-72
2023/05/11 11:47:25;;;;;;;12.00;8.85;;;17.70;99.90;;;;;;4992595;28;20039;-72
2023/05/11 11:49:53;;;;;;;10.85;8.80;;;17.70;99.90;;;;;;4992832;28;20202;-72
2023/05/11 11:52:27;;;;;;;12.80;9.23;;;17.70;99.90;;;;;;4976332;28;20112;-72
2023/05/11 11:55:00;;;;;;;12.95;10.50;;;17.60;99.90;;;;;;4992507;28;20053;-71
2023/05/11 11:57:32;;;;;;;15.43;10.95;;;18.00;99.90;;;;;;4976359;28;20048;-71
2023/05/11 11:59:59;;;;;;;14.73;10.68;;;17.70;99.90;;;;;;4991900;28;20081;-72
2023/05/11 12:02:26;;;;;;;11.70;10.27;;;17.90;99.90;;;;;;4991827;28;20175;-71
2023/05/11 12:05:20;;;;;;;15.10;12.40;;;17.80;99.90;;;;;;5008482;28;20084;-72
2023/05/11 12:07:49;;;;;;;13.00;11.63;;;17.80;99.90;;;;;;4965537;28;20104;-72
2023/05/11 12:10:18;;;;;;;14.63;11.35;;;17.70;99.90;;;;;;4993258;28;20113;-72
2023/05/11 12:12:49;;;;;;;10.43;8.73;;;17.90;99.90;;;;;;4990848;28;20034;-72
2023/05/11 12:15:29;;;;;;;9.98;8.25;;;18.50;99.90;;;;;;4991350;28;20125;-72
2023/05/11 12:17:55;;;;;;;10.70;8.15;;;18.40;99.90;;;;;;4985983;28;20496;-72
2023/05/11 12:20:21;;;;;;;11.43;7.90;;;18.60;99.90;;;;;;4974749;28;20550;-72
2023/05/11 12:22:48;;;;;;;9.02;7.25;;;18.40;99.90;;;;;;4991261;28;20046;-72
2023/05/11 12:25:16;;;;;;;9.75;7.53;;;18.40;99.90;;;;;;4975026;28;20046;-71
2023/05/11 12:27:48;;;;;;;9.07;7.38;;;18.40;99.90;;;;;;4990824;28;20064;-71
2023/05/11 12:30:25;;;;;;;9.23;7.55;;;18.50;99.90;;;;;;4989972;28;20556;-71
2023/05/11 12:32:52;;;;;;;9.57;6.95;;;18.70;99.90;;;;;;4975306;28;20076;-72
2023/05/11 12:35:25;;;;;;;8.80;7.18;;;18.40;99.90;;;;;;4991231;28;20046;-72
2023/05/11 12:37:51;;;;;;;10.13;7.60;;;18.60;99.90;;;;;;4991293;28;20050;-72
2023/05/11 12:40:17;;;;;;;9.52;7.00;;;18.80;99.90;;;;;;4991287;28;20035;-72
2023/05/11 12:42:53;;;;;;;9.45;8.45;;;18.90;99.90;;;;;;4991046;28;20479;-72
2023/05/11 12:45:20;;;;;;;9.25;8.00;;;18.80;99.90;;;;;;4990976;28;20422;-71
2023/05/11 12:47:47;;;;;;;10.23;8.50;;;19.00;99.90;;;;;;4988998;28;20081;-71
2023/05/11 12:50:13;;;;;;;9.43;8.40;;;18.20;99.90;;;;;;4990016;28;20042;-70
2023/05/11 12:52:39;;;;;;;10.63;7.78;;;;;;;;;;4989803;28;20516;-71
2023/05/11 12:55:05;;;;;;;8.98;7.50;;;18.80;99.90;;;;;;4973381;28;20081;-70
2023/05/11 12:57:32;;;;;;;10.73;6.32;;;19.00;99.90;;;;;;4989755;28;20133;-71
2023/05/11 13:00:12;;;;;;;7.07;6.38;;;19.30;99.90;;;;;;4989727;28;20096;-70
2023/05/11 13:02:55;;;;;;;11.45;7.22;;;19.50;99.90;;;;;;4973227;28;20133;-71
2023/05/11 13:05:24;;;;;;;;;;;19.30;99.90;;;;;;4986133;28;20066;-71
2023/05/11 13:08:04;;;;;;;11.02;7.43;;;19.30;99.90;;;;;;4989968;28;19917;-71
2023/05/11 13:10:30;;;;;;;7.57;6.60;;;18.80;99.90;;;;;;4988740;28;20046;-71
2023/05/11 13:12:55;;;;;;;6.90;6.20;;;19.00;99.90;;;;;;4990779;28;20046;-71